Tiempo atmosférico en la estación meteorológica de Gran Canaria Aeropuerto, Las Palmas (24 m.)



Fecha
DESCASC
Temp. máxima en grados centígrados (hora)
DESCASC
Temp. mínima en grados centígrados (hora)
DESCASC
Temp. media en grados centígrados
DESCASC
Racha de viento máxima en m/sg (hora)
DESCASC
Velocidad máxima media en intervalos de 10 minutos(hora)
DESCASC
Precipitaciones diarias en mm
DESCASC
Precipitaciones de 00:00 a 06:00 en mm
DESCASC
Precipitaciones de 06:00 a 12:00 en mm
DESCASC
Precipitaciones de 12:00 a 18:00 en mm
DESCASC
Precipitaciones de 18:00 a 24:00 en mm
DESCASC
31-03-2020 21.6 (12:00) 15.4 (03:00) 18.5 5.83 (11:30) 3.89 (17:40) 0 0 0 0 0
30-03-2020 22.4 (14:50) 14.5 (08:00) 18.4 10.28 (15:50) 7.5 (16:30) 0 0 0 0 0
29-03-2020 20.5 (12:20) 14.7 (00:00) 17.6 -- (--) -- (--) 0 0 0 0 0
28-03-2020 21.1 (13:20) 13.9 (00:00) 17.5 13.33 (11:40) 10.56 (11:40) 0.5 0.5 0 0 0
27-03-2020 21.5 (14:20) 13.7 (00:00) 17.6 7.22 (12:40) 4.17 (12:20) 7.4 0 0 6.5 0.9
26-03-2020 20.3 (11:00) 14.1 (00:00) 17.2 7.22 (10:40) 4.72 (10:30) -- 0 -- 1.3 0
25-03-2020 20.8 (12:00) 15.4 (00:00) 18.1 10.83 (12:20) 8.06 (10:30) 0 0 0 0 0
24-03-2020 23.2 (14:10) 15.6 (00:00) 19.4 15 (13:40) 10 (14:30) 0 0 0 0 0
23-03-2020 20.2 (14:40) 13 (00:00) 16.6 16.94 (13:20) 11.67 (13:10) 4.4 0 4.2 0.2 0
22-03-2020 20.8 (13:50) 15.3 (23:59) 18 10.83 (19:40) 6.39 (18:50) 0 0 0 0 0
21-03-2020 21 (14:40) 15.3 (00:00) 18.2 16.11 (15:00) 12.78 (14:20) 0 0 0 0 0
20-03-2020 22.4 (15:00) 16.2 (00:00) 19.3 15 (14:50) 9.17 (14:10) 0.7 0 0 0 0.7
19-03-2020 22.7 (14:30) 17.1 (00:00) 19.9 16.94 (11:30) 11.67 (15:00) 0 0 0 0 0
18-03-2020 21.7 (14:30) 14.4 (00:00) 18.1 15 (16:40) 9.17 (16:40) 0 0 0 0 0
17-03-2020 19.8 (13:20) 14 (00:00) 16.9 16.11 (12:30) 12.22 (13:10) 0.1 0.1 0 0 0
16-03-2020 21.9 (14:50) 16.6 (00:00) 19.3 17.5 (11:00) 12.78 (11:00) 0.1 0.1 0 0 0
15-03-2020 21.7 (15:30) 16.1 (00:00) 18.9 13.89 (14:20) 10.28 (14:20) 0.5 0 0 0.5 0
14-03-2020 21.5 (13:00) 16.8 (00:00) 19.1 13.33 (15:50) 10.83 (12:30) 0 0 0 0 0
13-03-2020 21.6 (14:00) 17.4 (02:30) 19.5 15 (11:40) 11.67 (11:40) 0 0 0 0 0
12-03-2020 24.2 (14:40) 16.5 (00:00) 20.4 10.83 (16:50) 8.89 (17:50) 0 0 0 0 0
11-03-2020 24.5 (13:20) 15.4 (00:00) 19.9 9.17 (23:59) 6.39 (22:20) 0 0 0 0 0
10-03-2020 22.5 (13:50) 16.1 (00:00) 19.3 11.67 (16:00) 9.72 (15:30) 0 0 0 0 0
09-03-2020 24.4 (13:50) 17.5 (00:00) 20.9 12.5 (02:00) 8.33 (16:40) 0 0 0 0 0
08-03-2020 23.6 (12:40) 16.8 (00:00) 20.2 15.28 (00:30) 10 (13:00) 0 0 0 0 0
07-03-2020 21.9 (14:10) 16.9 (00:00) 19.4 18.06 (15:00) 13.06 (11:20) 0 0 0 0 0
06-03-2020 -- (--) -- (--) -- -- (--) -- (--) -- 0.7 0 -- 0
05-03-2020 22 (13:20) 17.3 (00:00) 19.6 16.94 (14:40) 13.33 (16:20) 0 0 0 0 0
04-03-2020 23.3 (14:30) 16.2 (00:00) 19.8 13.33 (15:20) 10.83 (15:00) 0 0 0 0 0

Gráficas

Temp. máximas Temp. mínimas Temp. medias Precipitaciones Rachas de viento máximas Velocidades máximas media en intervalos de 10 minutos

Datos horarios

Fecha y hora oficial Temperatura (ºC) Velocidad del viento (km/h) Dirección del viento Racha (km/h) Dirección de racha Precipitación (mm) Presión (hPa) Tendencia (hPa) Humedad (%)
2020-04-02 23:00:00 18.1 13 Norte 24 Norte 0 1011.7 1.5 69
2020-04-02 22:00:00 18.2 20 Norte 24 Norte 0 1011.2 1.2 69
2020-04-02 21:00:00 18.1 18 Norte 32 Norte 0 1010.6 0.2 71
2020-04-02 20:00:00 18.8 23 Norte 33 Norte 0 1010.2 -0.6 67
2020-04-02 19:00:00 19.6 24 Nordeste 35 Norte 0 1010 -1.1 63
2020-04-02 18:00:00 20 24 Nordeste 35 Nordeste 0 1010.4 -1.3 62
2020-04-02 17:00:00 20.9 24 Nordeste 37 Norte 0 1010.8 -1.5 58
2020-04-02 16:00:00 21.1 24 Nordeste 39 Nordeste 0 1011.1 -2 57
2020-04-02 15:00:00 21.1 26 Nordeste 35 Nordeste 0 1011.7 -1.5 58
2020-04-02 14:00:00 21.1 25 Nordeste 37 Nordeste 0 1012.3 -0.5 61
2020-04-02 13:00:00 21.2 23 Nordeste 33 Nordeste 0 1013.1 0.8 61
2020-04-02 12:00:00 20.4 20 Nordeste 28 Norte 0 1013.2 1.2 61
2020-04-02 11:00:00 20.2 19 Nordeste 30 Norte 0 1012.8 1.6 62
2020-04-02 10:00:00 19.5 20 Norte 30 Norte 0 1012.3 1.8 65
2020-04-02 09:00:00 18.6 12 Norte 21 Norte 0 1012 1.7 68
2020-04-02 08:00:00 16.9 13 Norte 24 Norte 0 1011.2 0.7 73
2020-04-02 07:00:00 17.1 14 Norte 22 Norte 0 1010.5 -0.5 74
2020-04-02 06:00:00 16.8 14 Norte 24 Norte 0 1010.3 -1.1 74
2020-04-02 05:00:00 17.2 15 Norte 24 Norte 0 1010.5 -1.8 75
2020-04-02 04:00:00 16.9 14 Norte 22 Noroeste 0 1011 -1.9 74
2020-04-02 03:00:00 16.9 13 Norte 21 Noroeste 0 1011.4 -1.3 74
2020-04-02 02:00:00 17 13 Noroeste 18 Noroeste 0 1012.3 -0.4 74
2020-04-02 01:00:00 17.1 13 Norte 21 Noroeste 0 1012.9 0.5 73
2020-04-02 00:00:00 17.6 13 Norte 21 Norte 0 1012.7 1.1 72
2020-04-01 23:00:00 18 13 Norte 22 Norte 0 1012.7 1.7 71
2020-04-01 22:00:00 18.5 14 Norte 26 Norte 0 1012.4 1.6 70
2020-04-01 21:00:00 18.6 21 Norte 30 Norte 0 1011.6 1 69
2020-04-01 20:00:00 19.2 22 Norte 32 Norte 0 1011 0.2 66
2020-04-01 19:00:00 20.1 25 Norte 32 Nordeste 0 1010.8 -0.3 61
2020-04-01 18:00:00 20.5 23 Norte 32 Nordeste 0 1010.6 -0.9 62
2020-04-01 17:00:00 20.4 20 Nordeste 32 Nordeste 0 1010.8 -1 62
2020-04-01 16:00:00 20.8 19 Nordeste 33 Nordeste 0 1011.1 -1 59
2020-04-01 15:00:00 20.7 19 Nordeste 28 Nordeste 0 1011.5 -1.1 60
2020-04-01 14:00:00 21.5 18 Nordeste 32 Este 0 1011.8 -0.8 58
2020-04-01 13:00:00 21.1 21 Nordeste 28 Nordeste 0 1012.1 -0.2 59
2020-04-01 12:00:00 20.8 18 Nordeste 24 Nordeste 0 1012.6 0.9 59
2020-04-01 11:00:00 19.9 12 Nordeste 17 Nordeste 0 1012.6 1.5 65
2020-04-01 10:00:00 18.9 10 Nordeste 15 Norte 0 1012.3 1.9 69
2020-04-01 09:00:00 18 7 Norte 13 Norte 0 1011.7 1.2 72
2020-04-01 08:00:00 17.6 10 Noroeste 18 Norte 0 1011.1 0.8 75
2020-04-01 07:00:00 17.2 11 Norte 17 Norte 0 1010.4 -0.1 74
2020-04-01 06:00:00 17 9 Norte 13 Norte 0 1010.5 -0.4 80
2020-04-01 05:00:00 17.3 7 Norte 13 Norte 0 1010.3 -1 79
2020-04-01 04:00:00 17.7 10 Norte 18 Norte 0 1010.5 -1.1 78
2020-04-01 03:00:00 18.1 12 Norte 17 Norte 0 1010.9 -1 78
2020-04-01 02:00:00 18.5 6 Norte 13 Norte 0 1011.3 -0.2 76
2020-04-01 01:00:00 18.7 8 Norte 11 Norte 0 1011.6 0.7 76
2020-04-01 00:00:00 18.7 3 Norte 8 Noroeste 0 1011.9 1.5 77
2020-03-31 23:00:00 18.9 0 Calma 5 Este 0 1011.5 1.8 76
2020-03-31 22:00:00 18.9 3 Norte 5 Norte 0 1010.9 1.2 76
2020-03-31 21:00:00 18.8 5 Noroeste 11 Norte 0 1010.4 1 77
2020-03-31 20:00:00 19 8 Norte 11 Norte 0 1009.7 0.4 77
2020-03-31 19:00:00 19.4 9 Este 13 Sudeste 0 1009.7 0.3 76
2020-03-31 18:00:00 19.7 12 Sudeste 18 Sudeste 0 1009.4 -0.2 74
2020-03-31 17:00:00 19.8 13 Sudeste 17 Sudeste 0 1009.3 -0.3 72
2020-03-31 16:00:00 19.9 13 Sudeste 18 Sudeste 0 1009.4 -0.4 71
2020-03-31 15:00:00 20.1 14 Sudeste 21 Sudeste 0 1009.6 0.1 70
2020-03-31 14:00:00 20.7 12 Sudeste 18 Sudeste 0 1009.6 0.6 64
2020-03-31 13:00:00 20.7 12 Sudeste 18 Sudeste 0 1009.8 1 63
2020-03-31 12:00:00 21.4 12 Sudeste 21 Sudeste 0 1009.5 1 62
2020-03-31 11:00:00 21.3 11 Este 17 Este 0 1009 0.7 60
2020-03-31 10:00:00 20.4 3 Sudeste 11 Sudeste 0 1008.8 1.1 58
2020-03-31 09:00:00 17.6 9 Oeste 17 Oeste 0 1008.5 1.1 68
2020-03-31 08:00:00 15.9 13 Oeste 15 Oeste 0 1008.3 0.6 75
2020-03-31 07:00:00 16.4 7 Oeste 9 Noroeste 0 1007.7 -0.3 78
2020-03-31 06:00:00 16.6 3 Oeste -- -- 0 1007.4 -0.6 81
2020-03-31 05:00:00 16 4 Oeste 11 Sudoeste 0 1007.7 -0.6 85
2020-03-31 04:00:00 16.1 9 Oeste 15 Oeste 0 1008 -0.7 82
2020-03-31 03:00:00 15.5 6 Oeste 9 Oeste 0 1008 -0.9 78
2020-03-31 02:00:00 16.3 5 Noroeste 8 Noroeste 0 1008.3 -0.8 77
2020-03-31 01:00:00 16.8 5 Noroeste 8 Noroeste 0 1008.7 -0.4 78
2020-03-31 00:00:00 17.2 6 Noroeste 9 Noroeste 0 1008.9 0.3 78
2020-03-30 23:00:00 17.4 8 Noroeste 13 Norte 0 1009.1 0.8 79
2020-03-30 22:00:00 17.7 9 Norte 15 Norte 0 1009.1 1 78
2020-03-30 21:00:00 18.6 10 Norte 17 Noroeste 0 1008.6 0.7 74
2020-03-30 20:00:00 19.5 11 Norte 22 Norte 0 1008.3 0.2 68
2020-03-30 19:00:00 20.8 11 Nordeste 21 Norte 0 1008.1 -0.7 63
2020-03-30 18:00:00 21.4 11 Este 30 Sur 0 1007.9 -1.8 62
2020-03-30 17:00:00 20.9 22 Sudeste 37 Sudeste 0 1008.1 -2.4 62
2020-03-30 16:00:00 21.8 26 Sur 37 Sudeste 0 1008.8 -2 58
2020-03-30 15:00:00 21.4 24 Sur 35 Sur 0 1009.7 -1.9 59
2020-03-30 14:00:00 21 26 Sudeste 32 Sudeste 0 1010.5 -1 60
2020-03-30 13:00:00 20.6 17 Sudeste 24 Este 0 1010.8 -0.5 63
2020-03-30 12:00:00 19.5 15 Sudeste 18 Sudeste 0 1011.6 0.9 66
2020-03-30 11:00:00 19.8 13 Sudeste 17 Este 0 1011.5 0.9 64
2020-03-30 10:00:00 19.1 7 Sudoeste 13 Sudoeste 0 1011.3 1.2 62
2020-03-30 09:00:00 16.6 7 Oeste 13 Oeste 0 1010.7 0.8 72
2020-03-30 08:00:00 14.6 9 Oeste 11 Oeste 0 1010.6 0.1 76
2020-03-30 07:00:00 15.1 7 Oeste 9 Oeste 0 1010.1 -1.1 78
2020-03-30 06:00:00 15.2 9 Noroeste 13 Oeste 0 1009.9 -2.1 77
2020-03-30 05:00:00 15.7 9 Oeste 13 Noroeste 0 1010.5 -1.9 76
2020-03-30 04:00:00 16.4 8 Oeste 11 Noroeste 0 1011.2 -1.7 74
2020-03-30 03:00:00 16.6 8 Oeste 11 Oeste 0 1012 -1.2 77
2020-03-30 02:00:00 16.5 7 Oeste 11 Noroeste 0 1012.4 -0.8 75
2020-03-30 01:00:00 16.7 7 Oeste 11 Oeste 0 1012.9 -0.1 76
2020-03-30 00:00:00 -- -- -- -- -- 0 1013.2 0.5 --
2020-03-29 23:00:00 16.6 6 Oeste 8 Noroeste 0 1013.2 0.3 77
2020-03-29 22:00:00 17.6 0 Calma 8 Este 0 1013 0.2 73
2020-03-29 21:00:00 18 5 Este 9 Este 0 1012.7 0.1 72
2020-03-29 20:00:00 18.2 4 Este 9 Sudeste 0 1012.9 0 70
2020-03-29 19:00:00 18.4 8 Sudeste 13 Sudeste 0 1012.8 -0.8 70
2020-03-29 18:00:00 18.6 8 Sudeste 15 Este 0 1012.6 -1.7 68
2020-03-29 17:00:00 18.6 8 Sudeste 13 Sudeste 0 1012.9 -1.7 68
2020-03-29 16:00:00 18.5 8 Sudeste 11 Este 0 1013.6 -1.2 66
2020-03-29 15:00:00 18.8 8 Este 17 Este 0 1014.3 -0.6 66
2020-03-29 14:00:00 19.1 8 Sudeste 17 Este 0 1014.6 -0.3 63
2020-03-29 13:00:00 20 12 Este 18 Este 0 1014.8 0.2 60
2020-03-29 12:00:00 19.4 13 Este 18 Este 0 1014.9 0.6 63
2020-03-29 11:00:00 19.4 13 Este 21 Nordeste 0 1014.9 0.9 62
2020-03-29 10:00:00 18.4 9 Norte 15 Norte 0 1014.6 1.1 65
2020-03-29 09:00:00 16.4 10 Noroeste 15 Noroeste 0 1014.3 1 70
2020-03-29 08:00:00 14.8 12 Oeste 15 Noroeste 0 1014 0.7 75
2020-03-29 07:00:00 14.8 10 Noroeste 13 Noroeste 0 1013.5 -0.2 77
2020-03-29 06:00:00 15.6 9 Noroeste 15 Noroeste 0 1013.3 -0.9 75
2020-03-29 05:00:00 15.7 11 Noroeste 15 Norte 0 1013.3 -1.5 73
2020-03-29 04:00:00 15.8 10 Noroeste 17 Noroeste 0 1013.7 -1.3 71
2020-03-29 00:00:00 16.1 10 Noroeste 15 Noroeste 0 1015 0.9 69
2020-03-28 23:00:00 16.4 10 Noroeste 13 Noroeste 0 1015 1.6 66
2020-03-28 22:00:00 16.7 10 Norte 17 Norte 0 1014.8 1.8 73
2020-03-28 21:00:00 17.5 11 Norte 18 Noroeste 0 1014.1 1.4 70
2020-03-28 20:00:00 18.1 13 Norte 28 Norte 0 1013.4 1.3 70
2020-03-28 19:00:00 18.5 20 Norte 30 Norte 0 1013 1.3 70
2020-03-28 18:00:00 19.3 25 Norte 32 Norte 0 1012.7 1 64
2020-03-28 17:00:00 19.4 26 Norte 35 Nordeste 0 1012.1 0.3 62
2020-03-28 16:00:00 20.7 30 Nordeste 41 Norte 0 1011.7 -0.4 57
2020-03-28 15:00:00 20 33 Norte 41 Norte 0 1011.7 -0.6 59
2020-03-28 14:00:00 20.8 35 Nordeste 42 Nordeste 0 1011.8 -0.8 58
2020-03-28 13:00:00 20.4 35 Norte 46 Nordeste 0 1012.1 -0.5 59
2020-03-28 12:00:00 20.4 38 Nordeste 48 Nordeste 0 1012.3 0.4 60
2020-03-28 11:00:00 20.2 23 Norte 37 Norte 0 1012.6 1.1 53
2020-03-28 10:00:00 19.5 19 Norte 30 Norte 0 1012.6 1.8 53
2020-03-28 09:00:00 18.1 19 Norte 28 Norte 0 1011.9 1.6 61
2020-03-28 08:00:00 15.8 12 Norte 21 Norte 0 1011.5 1.9 69
2020-03-28 07:00:00 14.8 12 Norte 28 Norte 0 1010.8 1.6 71
2020-03-28 06:00:00 15.1 14 Norte 21 Norte 0 1010.3 1.3 67
2020-03-28 05:00:00 15 12 Norte 22 Noroeste 0 1009.6 0.1 68
2020-03-28 04:00:00 15.2 15 Noroeste 22 Noroeste 0 1009.2 -1.1 71
2020-03-28 03:00:00 15 12 Noroeste 26 Noroeste 0 1009 -1.8 84
2020-03-28 02:00:00 15.1 6 Oeste 11 Nordeste 0 1009.5 -1.1 84
2020-03-28 01:00:00 15.3 4 Norte 17 Norte 0.5 1010.3 0.1 92
2020-03-28 00:00:00 15.5 10 Norte 18 Norte 0.6 1010.8 1.1 94
2020-03-27 23:00:00 16.1 13 Norte 18 Norte 0 1010.6 1.4 89
2020-03-27 22:00:00 16.5 3 Noroeste 5 Oeste 0 1010.2 1.4 91
2020-03-27 21:00:00 16.7 5 Nordeste 15 Este 0 1009.7 1.2 90
2020-03-27 20:00:00 16.9 3 Nordeste 5 Norte 0.1 1009.2 0.6 85
2020-03-27 19:00:00 17 4 Norte 11 Este 0.2 1008.8 0.4 81
2020-03-27 18:00:00 17.1 6 Este 11 Este 0.5 1008.5 0 80
2020-03-27 17:00:00 16.9 6 Este 17 Sudeste 6 1008.6 -0.2 85
2020-03-27 16:00:00 19.4 14 Sudeste 21 Sudeste 0 1008.4 -0.9 59
2020-03-27 15:00:00 20.4 13 Este 26 Este 0 1008.5 -1.3 62
2020-03-27 14:00:00 20.1 5 Este 22 Nordeste 0 1008.8 -1.2 57
2020-03-27 13:00:00 20.7 13 Sudeste 26 Sudeste 0 1009.3 -0.3 58
2020-03-27 12:00:00 19.5 14 Sudeste 21 Sur 0 1009.8 0.7 61
2020-03-27 11:00:00 19.1 9 Sudeste 21 Sudeste 0 1010 1.5 57
2020-03-27 10:00:00 19.4 6 Sur 13 Sudeste 0 1009.6 1.5 56
2020-03-27 09:00:00 18.4 3 Oeste 9 Oeste 0 1009.1 1.1 57
2020-03-27 08:00:00 15.7 7 Oeste 9 Sudoeste 0 1008.5 0.7 67
2020-03-27 07:00:00 14.4 4 Sudoeste 15 Noroeste 0 1008.1 0 73
2020-03-27 06:00:00 16.3 13 Noroeste 21 Noroeste 0 1008 -0.7 62
2020-03-27 05:00:00 14.3 6 Oeste 9 Oeste 0 1007.8 -1.2 72
2020-03-27 04:00:00 13.7 6 Oeste 13 Oeste 0 1008.1 -1.5 74
2020-03-27 03:00:00 13.8 11 Oeste 15 Oeste 0 1008.7 -1.1 75
2020-03-27 02:00:00 13.9 9 Oeste 11 Oeste 0 1009 -0.8 74
2020-03-27 01:00:00 14.3 9 Oeste 11 Oeste 0 1009.6 -0.3 74
2020-03-27 00:00:00 14.1 0 Calma 9 Sudoeste 0 1009.8 0.1 81
2020-03-26 23:00:00 14.8 5 Sudoeste 8 Sudoeste 0 1009.8 0.5 83
2020-03-26 22:00:00 15 0 Calma 8 Oeste 0 1009.9 0.7 86
2020-03-26 21:00:00 15.1 3 Oeste 5 Oeste 0 1009.7 -- 86
2020-03-26 20:00:00 15.9 4 Oeste 8 Oeste 0 1009.3 0.2 82
2020-03-26 19:00:00 16.2 6 Sudoeste -- -- 0 1009.2 0 82
2020-03-26 18:00:00 -- -- -- 11 Sur 0.1 -- -- --
2020-03-26 17:00:00 17 5 Sudoeste 13 Sur 0 1009.1 -1.1 74
2020-03-26 16:00:00 16.5 8 Sudoeste 15 Noroeste 0 1009.2 -1.7 80
2020-03-26 15:00:00 16.6 7 Sur 13 Sur 0 1009.9 -1.1 81
2020-03-26 14:00:00 16.1 12 Sudoeste 22 Oeste 1.2 1010.2 -1 86
2020-03-26 13:00:00 17.1 9 Oeste 18 Este 0 1010.9 -0.1 78
2020-03-26 12:00:00 18.9 14 Este 22 Nordeste 0 1011 0.3 61
2020-03-26 11:00:00 19.8 15 Nordeste 26 Nordeste -- 1011.2 0.8 57
2020-03-26 10:00:00 19.4 15 Nordeste 24 Este -- 1011 1 58
2020-03-26 09:00:00 18.3 8 Norte 15 Norte 0 1010.7 1 61
2020-03-26 08:00:00 16.2 7 Noroeste 13 Noroeste 0 1010.4 0.9 61
2020-03-26 07:00:00 15.5 8 Noroeste 15 Noroeste 0 1010 0.2 69
2020-03-26 06:00:00 15.8 12 Noroeste 18 Norte 0 1009.7 -0.6 68
2020-03-26 05:00:00 16.4 6 Norte 13 Noroeste 0 1009.5 -1.4 65
2020-03-26 04:00:00 16.5 10 Noroeste 15 Noroeste 0 1009.8 -1.7 67
2020-03-26 03:00:00 16.5 10 Noroeste 17 Noroeste 0 1010.3 -1.8 69
2020-03-26 02:00:00 16.5 9 Noroeste 15 Noroeste 0 1010.9 -1.2 70
2020-03-26 01:00:00 16.7 8 Noroeste 13 Norte 0 1011.5 -0.5 65
2020-03-26 00:00:00 16.6 9 Noroeste 13 Noroeste 0 1012.1 0.5 61
2020-03-25 23:00:00 16.1 9 Noroeste 17 Noroeste 0 1012.1 0.9 66
2020-03-25 22:00:00 16.4 10 Norte 24 Norte 0 1012 0.9 66
2020-03-25 21:00:00 17.4 17 Norte 28 Norte 0 1011.6 0.7 64
2020-03-25 20:00:00 17.6 17 Norte 28 Norte 0 1011.2 0.2 64
2020-03-25 19:00:00 18.1 19 Norte 24 Norte 0 1011.1 0 63
2020-03-25 18:00:00 18.4 16 Norte 24 Norte 0 1010.9 -0.7 59
2020-03-25 17:00:00 18.7 18 Nordeste 30 Nordeste 0 1011 -0.9 60
2020-03-25 16:00:00 18.8 19 Nordeste 28 Nordeste 0 1011.1 -1.4 62
2020-03-25 15:00:00 19 22 Nordeste 37 Norte 0 1011.6 -1 62
2020-03-25 14:00:00 19.4 27 Nordeste 37 Nordeste 0 1011.9 -0.9 58
2020-03-25 13:00:00 20.1 28 Norte 39 Norte 0 1012.5 -0.1 56
2020-03-25 12:00:00 20.5 28 Nordeste 37 Norte 0 1012.6 0.3 58
2020-03-25 11:00:00 19.4 23 Norte 37 Norte 0 1012.8 0.8 58
2020-03-25 10:00:00 19.1 24 Norte 32 Norte 0 1012.6 1 55
2020-03-25 09:00:00 19 8 Norte 15 Norte 0 1012.3 1.2 48
2020-03-25 08:00:00 16.9 5 Norte 13 Norte 0 1012 1.2 63
2020-03-25 07:00:00 15.6 8 Noroeste 11 Noroeste 0 1011.6 0.8 68
2020-03-25 06:00:00 15.8 6 Norte 13 Norte 0 1011.1 0.1 70
2020-03-25 05:00:00 16.9 8 Norte 15 Norte 0 1010.8 -0.4 69
2020-03-25 04:00:00 16.9 9 Norte 17 Noroeste 0 1010.8 -0.9 67
2020-03-25 03:00:00 16.9 11 Noroeste 21 Noroeste 0 1011 -1.4 66
2020-03-25 02:00:00 16.9 10 Norte 21 Norte 0 1011.2 -1.5 69
2020-03-25 01:00:00 17.1 10 Norte 22 Norte 0 1011.7 -1 69
2020-03-25 00:00:00 17.2 14 Norte 24 Norte 0 1012.4 0.1 67
2020-03-24 23:00:00 17.1 10 Noroeste 21 Noroeste 0 1012.7 1 61
2020-03-24 22:00:00 17.5 12 Norte 22 Norte 0 1012.7 1.4 66
2020-03-24 21:00:00 17.9 14 Norte 22 Norte 0 1012.3 1.5 67
2020-03-24 20:00:00 18.4 17 Noroeste 32 Noroeste 0 1011.7 1.5 59
2020-03-24 19:00:00 19 19 Norte 35 Norte 0 1011.3 1.3 59
2020-03-24 18:00:00 20 25 Norte 41 Noroeste 0 1010.8 0.7 52
2020-03-24 17:00:00 21.1 25 Norte 45 Norte 0 1010.2 -0.4 49
2020-03-24 16:00:00 21.3 27 Norte 50 Norte 0 1010 -1.5 44
2020-03-24 15:00:00 22.6 31 Norte 50 Norte 0 1010.1 -1.7 38
2020-03-24 14:00:00 22.2 32 Norte 54 Norte 0 1010.6 -1.3 39
2020-03-24 13:00:00 22.4 27 Norte 50 Noroeste 0 1011.5 -0.2 38
2020-03-24 12:00:00 21.5 33 Norte 52 Norte 0 1011.8 0.4 41
2020-03-24 11:00:00 20.4 26 Norte 41 Noroeste 0 1011.9 1 49
2020-03-24 10:00:00 19.9 21 Norte 35 Norte 0 1011.7 1.4 55
2020-03-24 09:00:00 18.3 14 Norte 24 Norte 0 1011.4 1.7 62
2020-03-24 08:00:00 16.9 13 Noroeste 24 Noroeste 0 1010.9 1.3 65
2020-03-24 07:00:00 16.1 14 Noroeste 21 Noroeste 0 1010.3 0.9 66
2020-03-24 06:00:00 15.8 11 Norte 18 Norte 0 1009.7 0.3 75
2020-03-24 05:00:00 15.8 8 Norte 28 Norte 0 1009.6 0 77
2020-03-24 04:00:00 16.5 11 Norte 28 Noroeste 0 1009.4 -0.5 69
2020-03-24 03:00:00 16.8 19 Norte 30 Norte 0 1009.4 -0.4 67
2020-03-24 02:00:00 16.6 14 Norte 26 Norte 0 1009.6 -0.5 67
2020-03-24 01:00:00 16.6 15 Noroeste 33 Norte 0 1009.9 0 69
2020-03-24 00:00:00 17.1 19 Norte 32 Norte 0 1009.8 0.9 69
2020-03-23 23:00:00 16.8 10 Norte 33 Noroeste 0 1010.1 2.2 66
2020-03-23 22:00:00 16.8 20 Noroeste 33 Noroeste 0 1009.9 2.7 66
2020-03-23 21:00:00 16.7 17 Norte 35 Norte 0 1008.9 2.3 70
2020-03-23 20:00:00 17.1 23 Norte 45 Norte 0 1007.9 1.4 66
2020-03-23 19:00:00 17.5 27 Norte 50 Norte 0 1007.2 0.7 63
2020-03-23 18:00:00 18.6 31 Norte 52 Norte 0 1006.6 0.6 56
2020-03-23 17:00:00 18.9 31 Norte 52 Norte 0 1006.5 0.4 55
2020-03-23 16:00:00 19.1 33 Norte 58 Norte 0 1006.5 0.2 53
2020-03-23 15:00:00 19.4 35 Norte 55 Norte 0 1006 -0.4 56
2020-03-23 14:00:00 19 36 Norte 61 Norte 0 1006.1 -0.5 56
2020-03-23 13:00:00 18.4 40 Norte 58 Norte 0.2 1006.3 0.6 61
2020-03-23 12:00:00 18 29 Norte 52 Norte 0.5 1006.4 1 62
2020-03-23 11:00:00 16.5 32 Noroeste 52 Noroeste 0 1006.6 2.1 69
2020-03-23 10:00:00 16.1 37 Norte 55 Norte 1.5 1005.7 2.1 68
2020-03-23 09:00:00 15 20 Norte 54 Noroeste 0 1005.4 1.7 72
2020-03-23 08:00:00 13.7 30 Norte 55 Noroeste 0.8 1004.5 1.4 80
2020-03-23 07:00:00 13.9 23 Norte 55 Noroeste 1.4 1003.6 0 74
2020-03-23 06:00:00 14.3 18 Noroeste 39 Norte 0 1003.7 -0.6 68
2020-03-23 05:00:00 15.9 14 Norte 24 Norte 0 1003.1 -1.9 50
2020-03-23 04:00:00 14.7 5 Noroeste 13 Norte 0 1003.6 -1.9 58
2020-03-23 03:00:00 15.4 12 Norte 26 Noroeste 0 1004.3 -2.1 58
2020-03-23 02:00:00 15.1 13 Noroeste 28 Norte 0 1005 -1.6 64
2020-03-23 01:00:00 15.3 9 Norte 17 Norte 0 1005.5 -1.4 74
2020-03-23 00:00:00 15.4 9 Oeste 15 Oeste 0 1006.4 -0.5 74
2020-03-22 23:00:00 15.8 4 Sur 13 Oeste 0 1006.6 -0.1 71
2020-03-22 22:00:00 16.7 0 Calma 8 Oeste 0 1006.9 -0.4 66
2020-03-22 21:00:00 18 9 Noroeste 26 Noroeste 0 1006.9 -0.2 52
2020-03-22 20:00:00 16.7 22 Noroeste 39 Norte 0 1006.7 -0.7 67
2020-03-22 19:00:00 16.8 23 Norte 35 Norte 0 1007.3 -0.5 74
2020-03-22 18:00:00 18.1 8 Este 22 Sudeste 0 1007.1 -1.8 69
2020-03-22 17:00:00 19 19 Sur 30 Sur 0 1007.4 -2.1 65
2020-03-22 16:00:00 20.4 20 Sur 30 Sudeste 0 1007.8 -2.7 55
2020-03-22 15:00:00 19.6 18 Sudeste 30 Sudeste 0 1008.9 -2.3 56
2020-03-22 14:00:00 20.5 22 Sudeste 30 Sudeste 0 1009.5 -2.4 51
2020-03-22 13:00:00 20.4 18 Sudeste 30 Sudeste 0 1010.5 -2 52
2020-03-22 12:00:00 20.5 22 Sur 30 Sur 0 1011.2 -1 50
2020-03-22 11:00:00 18.7 21 Norte 35 Nordeste 0 1011.9 -0.1 58
2020-03-22 10:00:00 18.2 13 Noroeste 30 Norte 0 1012.5 0.6 55
2020-03-22 09:00:00 17.6 13 Norte 26 Noroeste 0 1012.2 0.5 53
2020-03-22 08:00:00 16.2 5 Noroeste 28 Norte 0 1012 0.1 60
2020-03-22 07:00:00 16.5 21 Norte 32 Norte 0 1011.9 -0.3 58
2020-03-22 06:00:00 16 9 Norte 18 Norte 0 1011.7 -1.3 66
2020-03-22 05:00:00 15.9 12 Norte 32 Noroeste 0 1011.9 -1.9 63
2020-03-22 04:00:00 16.4 15 Norte 26 Noroeste 0 1012.2 -2 59
2020-03-22 03:00:00 16.2 13 Noroeste 21 Noroeste 0 1013 -1.7 58
2020-03-22 02:00:00 16.4 14 Noroeste 21 Noroeste 0 1013.8 -1.2 52
2020-03-22 01:00:00 15.7 12 Norte 21 Norte 0 1014.2 -1.1 68
2020-03-22 00:00:00 15.9 17 Norte 28 Norte 0 1014.7 0 74
2020-03-21 23:00:00 16 16 Norte 32 Noroeste 0 1015 0.7 69
2020-03-21 22:00:00 16.8 17 Norte 33 Noroeste 0 1015.3 1.2 61
2020-03-21 21:00:00 16.8 27 Noroeste 39 Noroeste 0 1014.7 0.7 60
2020-03-21 20:00:00 16.8 24 Noroeste 35 Noroeste 0 1014.3 0.6 58
2020-03-21 19:00:00 17.6 24 Norte 37 Norte 0 1014.1 0 48
2020-03-21 18:00:00 18.3 28 Norte 54 Norte 0 1014 -0.2 46
2020-03-21 17:00:00 18.9 31 Norte 52 Norte 0 1013.7 -1.5 49
2020-03-21 16:00:00 19.5 39 Norte 55 Norte 0 1014.1 -2.3 50
2020-03-21 15:00:00 20.1 44 Norte 58 Norte 0 1014.2 -2.7 47
2020-03-21 14:00:00 20.6 44 Norte 55 Nordeste 0 1015.2 -1.9 49
2020-03-21 13:00:00 19.1 38 Norte 50 Norte 0 1016.4 -0.8 52
2020-03-21 12:00:00 18.4 26 Norte 41 Norte 0 1016.9 0.1 47
2020-03-21 11:00:00 18.3 21 Norte 32 Noroeste 0 1017.1 1.1 55
2020-03-21 10:00:00 17.1 23 Noroeste 37 Norte 0 1017.2 1.6 58
2020-03-21 09:00:00 16.5 18 Norte 37 Norte 0 1016.8 1.6 56
2020-03-21 08:00:00 16.4 18 Norte 33 Norte 0 1016 1 54
2020-03-21 07:00:00 16.4 19 Norte 32 Norte 0 1015.6 0.9 56
2020-03-21 06:00:00 16.1 13 Norte 26 Noroeste 0 1015.2 0.4 56
2020-03-21 05:00:00 16.2 14 Norte 30 Noroeste 0 1015 -0.3 63
2020-03-21 04:00:00 16 16 Noroeste 28 Noroeste 0 1014.7 -0.9 65
2020-03-21 03:00:00 15.5 13 Norte 24 Norte 0 1014.8 -1.1 67
2020-03-21 02:00:00 16.6 15 Norte 37 Norte 0 1015.3 -0.8 69
2020-03-21 01:00:00 16.5 20 Norte 41 Norte 0 1015.6 -0.5 77
2020-03-21 00:00:00 17.3 21 Norte 39 Norte 0 1015.9 0.1 77
2020-03-20 23:00:00 17.2 22 Norte 42 Norte 0 1016.1 1.1 77
2020-03-20 22:00:00 16.9 21 Norte 33 Norte 0.1 1016.1 1.5 83
2020-03-20 21:00:00 16.3 16 Norte 37 Norte 0.6 1015.8 1.7 91
2020-03-20 20:00:00 17.6 18 Norte 37 Norte 0 1015 1.2 73
2020-03-20 19:00:00 18.5 20 Norte 33 Norte 0 1014.6 0.7 67
2020-03-20 18:00:00 19.5 23 Norte 39 Norte 0 1014.1 0.3 58
2020-03-20 17:00:00 21 27 Norte 41 Norte 0 1013.8 -0.5 49
2020-03-20 16:00:00 21.7 29 Norte 50 Norte 0 1013.9 -0.8 44
2020-03-20 15:00:00 22.1 29 Norte 54 Norte 0 1013.8 -1.3 47
2020-03-20 14:00:00 21.9 29 Norte 50 Norte 0 1014.3 -0.8 50
2020-03-20 13:00:00 21.8 28 Norte 48 Norte 0 1014.7 -0.3 51
2020-03-20 12:00:00 21.1 29 Norte 42 Norte 0 1015.1 0.9 48
2020-03-20 11:00:00 19.7 26 Norte -- -- -- 1015.1 1.8 57
2020-03-20 10:00:00 19.1 28 Norte 41 Norte 0 1015 2.4 61
2020-03-20 09:00:00 18.5 22 Norte 33 Norte 0 1014.2 2.1 63
2020-03-20 08:00:00 17.9 21 Norte 37 Norte 0 1013.3 1.5 70
2020-03-20 07:00:00 17.7 17 Norte 35 Norte 0 1012.6 0.6 67
2020-03-20 06:00:00 17.6 22 Norte 39 Norte 0 1012.1 -0.1 75
2020-03-20 05:00:00 17.6 22 Norte 39 Norte 0 1011.8 -0.8 75
2020-03-20 04:00:00 17.5 22 Norte 33 Norte 0 1012 -1.3 76
2020-03-20 03:00:00 17.5 19 Norte 35 Norte 0 1012.2 -1.4 74
2020-03-20 02:00:00 17.6 19 Norte 33 Norte 0 1012.6 -1.2 77
2020-03-20 01:00:00 17.9 19 Norte 33 Norte 0 1013.3 -0.7 75
2020-03-20 00:00:00 18 23 Norte 37 Norte 0 1013.6 -0.1 73
2020-03-19 23:00:00 18 22 Norte 37 Norte 0 1013.8 0.6 74
2020-03-19 22:00:00 18.2 22 Norte 37 Norte 0 1014 1.4 74
2020-03-19 21:00:00 18.4 22 Norte 41 Norte 0 1013.7 1.5 71
2020-03-19 20:00:00 18.6 21 Norte 39 Norte 0 1013.2 1.3 72
2020-03-19 19:00:00 19.1 24 Norte 46 Norte 0 1012.6 0.7 67
2020-03-19 18:00:00 20.4 27 Norte 42 Norte 0 1012.2 0.4 60
2020-03-19 17:00:00 21 31 Norte 48 Norte 0 1011.9 0.1 54
2020-03-19 16:00:00 21.5 35 Norte 54 Norte 0 1011.9 -0.5 50
2020-03-19 15:00:00 22 42 Norte 58 Norte 0 1011.8 -0.8 45
2020-03-19 14:00:00 22.2 32 Norte 55 Norte 0 1011.8 -0.7 37
2020-03-19 13:00:00 21.9 31 Norte 55 Norte 0 1012.4 0.5 45
2020-03-19 12:00:00 21.3 35 Norte 61 Norte 0 1012.6 1.3 46
2020-03-19 11:00:00 21.2 37 Norte 55 Noroeste 0 1012.5 1.9 59
2020-03-19 10:00:00 20.1 34 Noroeste 54 Noroeste 0 1011.9 1.4 67
2020-03-19 09:00:00 19.4 36 Noroeste 50 Noroeste 0 1011.3 0.9 66
2020-03-19 08:00:00 18.4 31 Noroeste 48 Noroeste 0 1010.6 -0.1 64
2020-03-19 07:00:00 17.9 29 Noroeste 45 Noroeste 0 1010.5 -0.1 63
2020-03-19 06:00:00 17.7 25 Noroeste 41 Noroeste 0 1010.4 -0.3 63
2020-03-19 05:00:00 17.5 18 Noroeste 41 Norte 0 1010.7 -0.1 58
2020-03-19 04:00:00 17.3 24 Norte 41 Noroeste 0 1010.6 -0.8 61
2020-03-19 03:00:00 17.4 21 Norte 46 Noroeste 0 1010.7 -1 65
2020-03-19 02:00:00 17.8 24 Noroeste 41 Norte 0 1010.8 -1.4 65
2020-03-19 01:00:00 17.8 19 Noroeste 42 Norte 0 1011.4 -1.1 58
2020-03-19 00:00:00 17.5 27 Noroeste 46 Noroeste 0 1011.7 -0.6 57
2020-03-18 23:00:00 17.3 21 Noroeste 42 Noroeste 0 1012.2 0.3 56
2020-03-18 22:00:00 17.4 22 Noroeste 42 Norte 0 1012.5 1.1 57
2020-03-18 21:00:00 17.2 21 Norte 37 Norte 0 1012.3 1 67
2020-03-18 20:00:00 17.4 19 Norte 42 Noroeste 0 1011.9 0.6 67
2020-03-18 19:00:00 18.2 22 Norte 46 Noroeste 0 1011.4 0.1 60
2020-03-18 18:00:00 19 30 Norte 45 Norte 0 1011.3 -0.4 52
2020-03-18 17:00:00 19.3 32 Noroeste 54 Noroeste 0 1011.3 -0.8 51
2020-03-18 16:00:00 20.8 28 Noroeste 45 Noroeste 0 1011.3 -1.5 42
2020-03-18 15:00:00 20.6 30 Noroeste 48 Norte 0 1011.7 -1.6 41
2020-03-18 14:00:00 21 25 Norte 45 Norte 0 1012.1 -2 38
2020-03-18 13:00:00 20.6 23 Noroeste 45 Norte 0 1012.8 -1 43
2020-03-18 12:00:00 20.8 26 Noroeste 45 Norte 0 1013.3 -0.5 43
2020-03-18 11:00:00 18.9 27 Noroeste 50 Norte 0 1014.1 0.9 53
2020-03-18 10:00:00 19.4 24 Norte 41 Norte 0 1013.8 0.7 43
2020-03-18 09:00:00 16.8 22 Norte 39 Norte 0 1013.8 0.9 60
2020-03-18 08:00:00 16.2 24 Noroeste 41 Noroeste 0 1013.2 0.5 60
2020-03-18 07:00:00 15.5 19 Norte 32 Norte 0 1013.1 0.3 68
2020-03-18 06:00:00 15.6 19 Norte 45 Noroeste 0 1012.9 -0.4 69
2020-03-18 05:00:00 14.5 27 Noroeste 45 Norte 0 1012.7 -1 79
2020-03-18 04:00:00 15.6 15 Norte 33 Noroeste 0 1012.8 -1.3 68
2020-03-18 03:00:00 15.1 24 Noroeste 45 Norte 0 1013.3 -1.3 69
2020-03-18 02:00:00 15.7 22 Norte 35 Noroeste 0 1013.7 -1.3 70
2020-03-18 01:00:00 14.8 21 Norte 41 Norte 0 1014.1 -1.2 80
2020-03-18 00:00:00 15 23 Norte 39 Noroeste 0 1014.6 -0.3 80
2020-03-17 23:00:00 15.8 20 Norte 39 Norte 0 1015 0.6 75
2020-03-17 22:00:00 16.3 28 Norte 54 Norte 0 1015.3 1.4 59
2020-03-17 21:00:00 16.6 24 Norte 41 Norte 0 1014.9 1.3 70
2020-03-17 20:00:00 16.5 25 Norte 45 Norte 0 1014.4 0.9 65
2020-03-17 19:00:00 17.1 30 Norte 46 Norte 0 1013.9 0.3 67
2020-03-17 18:00:00 18.1 28 Norte 48 Norte 0 1013.6 -0.2 50
2020-03-17 17:00:00 18.3 31 Norte 50 Norte 0 1013.5 -1 56
2020-03-17 16:00:00 19.1 33 Norte 50 Norte 0 1013.6 -1.4 51
2020-03-17 15:00:00 19.2 30 Norte 52 Norte 0 1013.8 -1.9 55
2020-03-17 14:00:00 18.7 28 Norte 55 Norte 0 1014.5 -1.6 59
2020-03-17 13:00:00 19.1 42 Norte 58 Nordeste 0 1015 -1 61
2020-03-17 12:00:00 18.4 29 Norte 50 Norte 0 1015.7 0 56
2020-03-17 11:00:00 15.6 22 Norte 50 Norte 0 1016.1 1.1 83
2020-03-17 10:00:00 15.9 22 Norte 41 Norte 0 1016 1.2 70
2020-03-17 09:00:00 15.4 22 Norte 41 Noroeste 0 1015.7 1.2 70
2020-03-17 08:00:00 15.3 25 Norte 41 Norte 0 1015 0.9 67
2020-03-17 07:00:00 15.3 18 Norte 37 Norte 0 1014.8 0.7 67
2020-03-17 06:00:00 14.6 26 Norte 42 Norte 0 1014.5 0.1 76
2020-03-17 05:00:00 14.6 25 Noroeste 41 Noroeste 0 1014.1 -0.5 73
2020-03-17 04:00:00 14.7 20 Norte 41 Norte 0.1 1014.1 -0.8 75
2020-03-17 03:00:00 15.9 23 Norte 45 Norte 0 1014.4 -0.6 63
2020-03-17 02:00:00 16.4 26 Norte 50 Norte 0 1014.6 -0.9 59
2020-03-17 01:00:00 16.9 29 Norte 52 Norte 0 1014.9 -0.4 55
2020-03-17 00:00:00 17.1 33 Norte 55 Norte 0 1015 0.2 61
2020-03-16 23:00:00 17 30 Norte 58 Norte 0 1015.5 1.3 63
2020-03-16 22:00:00 17.5 37 Norte 55 Norte 0 1015.3 1.3 68
2020-03-16 21:00:00 17.5 34 Norte 54 Norte 0 1014.8 1 70
2020-03-16 20:00:00 17.2 28 Norte 52 Norte 0 1014.2 0.5 72
2020-03-16 19:00:00 17.6 33 Norte 52 Norte 0 1014 0.1 72
2020-03-16 18:00:00 18.5 34 Norte 55 Norte 0 1013.8 -0.3 69
2020-03-16 17:00:00 19.5 36 Norte 50 Norte 0 1013.7 -0.6 62
2020-03-16 16:00:00 20.3 38 Norte 54 Norte 0 1013.9 -1.3 52
2020-03-16 15:00:00 21 35 Norte 63 Norte 0 1014.1 -1.7 47
2020-03-16 14:00:00 21.1 44 Norte 63 Norte 0 1014.3 -1.5 46
2020-03-16 13:00:00 21.2 41 Norte 58 Norte 0 1015.2 -0.4 43
2020-03-16 12:00:00 20.7 36 Norte 59 Norte 0 1015.8 0.7 43
2020-03-16 11:00:00 20.5 46 Norte 63 Norte 0 1015.8 1.4 42
2020-03-16 10:00:00 19.8 34 Norte 58 Norte 0 1015.6 1.8 54
2020-03-16 09:00:00 17.6 34 Norte 52 Norte 0 1015.1 1.6 66
2020-03-16 08:00:00 17.4 27 Norte 46 Norte 0 1014.4 0.8 68
2020-03-16 07:00:00 17.3 31 Norte 46 Norte 0 1013.8 0.2 69
2020-03-16 06:00:00 17.4 24 Norte 46 Norte 0 1013.5 -0.4 63
2020-03-16 05:00:00 17.4 26 Norte 42 Norte 0 1013.6 -0.7 69
2020-03-16 04:00:00 17.5 24 Norte 39 Norte 0 1013.6 -0.9 70
2020-03-16 03:00:00 17.6 23 Norte 37 Norte 0 1013.9 -0.9 72
2020-03-16 02:00:00 17.4 19 Norte 35 Norte 0.1 1014.3 -0.3 74
2020-03-16 01:00:00 17.5 17 Norte 37 Norte 0 1014.5 0.4 70
2020-03-16 00:00:00 17.4 18 Norte 39 Norte 0 1014.8 0.7 68
2020-03-15 23:00:00 17.9 27 Norte 45 Norte 0 1014.6 1 67
2020-03-15 22:00:00 18 19 Norte 35 Norte 0 1014.1 1.1 66
2020-03-15 21:00:00 17.5 18 Norte 37 Norte 0 1014.1 1.5 63
2020-03-15 20:00:00 17.8 19 Norte 46 Norte 0 1013.6 0.8 63
2020-03-15 19:00:00 17.7 28 Norte 48 Norte 0 1013 0.3 64
2020-03-15 18:00:00 18.9 33 Norte 48 Norte 0 1012.6 -0.3 57
2020-03-15 17:00:00 18.3 29 Norte 48 Norte 0.5 1012.8 -0.6 67
2020-03-15 16:00:00 21.2 27 Norte 42 Norte 0 1012.7 -1.4 48
2020-03-15 15:00:00 20.7 26 Norte 50 Norte 0 1012.9 -1.6 48
2020-03-15 14:00:00 21.1 29 Norte 46 Norte 0 1013.4 -1.1 44
2020-03-15 13:00:00 19.5 30 Norte 42 Norte 0 1014.1 -0.4 56
2020-03-15 12:00:00 20.2 21 Norte 48 Norte 0 1014.5 0.2 50
2020-03-15 11:00:00 20 27 Norte 46 Norte 0 1014.5 1 52
2020-03-15 10:00:00 17.7 22 Norte 37 Norte 0 1014.5 1.4 62
2020-03-15 09:00:00 17.9 24 Norte 39 Norte 0 1014.3 1.7 64
2020-03-15 08:00:00 16.5 14 Norte 26 Norte 0 1013.5 1.4 67
2020-03-15 07:00:00 16.5 15 Norte 28 Noroeste 0 1013.1 0.8 72
2020-03-15 06:00:00 16.5 17 Norte 33 Noroeste 0 1012.6 0.3 68
2020-03-15 05:00:00 16.1 19 Noroeste 33 Noroeste 0 1012.1 -1 67
2020-03-15 04:00:00 16.3 14 Norte 33 Norte 0 1012.3 -1.4 68
2020-03-15 03:00:00 16.6 18 Norte 32 Norte 0 1012.3 -1.5 70
2020-03-15 02:00:00 16.9 18 Norte 26 Norte 0 1013.1 -0.7 69
2020-03-15 01:00:00 16.6 14 Norte 28 Norte 0 1013.7 0 66
2020-03-15 00:00:00 16.8 17 Norte 32 Norte 0 1013.8 0.1 64
2020-03-14 23:00:00 16.8 20 Norte 37 Norte 0 1013.8 0.5 61
2020-03-14 22:00:00 17 19 Norte 33 Norte 0 1013.7 0.9 62
2020-03-14 21:00:00 17.1 19 Norte 32 Norte 0 1013.7 1.3 62
2020-03-14 20:00:00 17.5 17 Norte 32 Norte 0 1013.3 0.8 60
2020-03-14 19:00:00 18.4 22 Norte 42 Norte 0 1012.8 0.2 56
2020-03-14 18:00:00 19.3 31 Norte 48 Norte 0 1012.4 -0.5 53
2020-03-14 17:00:00 20 35 Norte 46 Norte 0 1012.5 -1 51
2020-03-14 16:00:00 20.8 36 Norte 48 Norte 0 1012.6 -1.6 49
2020-03-14 15:00:00 20.9 29 Norte 46 Nordeste 0 1012.9 -1.8 50
2020-03-14 14:00:00 21 32 Norte 45 Norte 0 1013.5 -1.2 51
2020-03-14 13:00:00 21.2 36 Norte 46 Nordeste 0 1014.2 -0.3 53
2020-03-14 12:00:00 20.9 36 Norte 45 Norte 0 1014.7 0.5 58
2020-03-14 11:00:00 19.9 34 Norte 42 Nordeste 0 1014.7 0.8 61
2020-03-14 10:00:00 19.9 28 Norte 45 Norte 0 1014.5 0.9 60
2020-03-14 09:00:00 18.6 27 Norte 41 Norte 0 1014.2 0.7 63
2020-03-14 08:00:00 17.3 23 Norte 39 Norte 0 1013.9 0.6 68
2020-03-14 07:00:00 17.4 26 Norte 45 Norte 0 1013.6 0.1 67
2020-03-14 06:00:00 17.5 21 Norte 33 Norte 0 1013.5 -0.5 71
2020-03-14 05:00:00 17.5 23 Norte 35 Norte 0 1013.3 -1.2 73
2020-03-14 04:00:00 17.7 25 Norte 39 Norte 0 1013.5 -1.4 71
2020-03-14 03:00:00 17.9 26 Norte 39 Norte 0 1014 -1.4 70
2020-03-14 02:00:00 17.5 24 Norte 39 Norte 0 1014.5 -1.1 80
2020-03-14 01:00:00 18 22 Norte 42 Norte 0 1014.9 -0.4 75
2020-03-14 00:00:00 18.1 27 Norte 41 Norte 0 1015.4 0.7 73
2020-03-13 23:00:00 18 28 Norte 45 Norte 0 1015.6 1.6 72
2020-03-13 22:00:00 18.3 30 Norte 46 Norte 0 1015.3 1.7 71
2020-03-13 21:00:00 18.2 31 Norte 48 Norte 0 1014.7 1.3 71
2020-03-13 20:00:00 18.4 31 Norte 46 Norte 0 1014 0.6 73
2020-03-13 19:00:00 18.7 28 Norte 42 Norte 0 1013.6 0.2 72
2020-03-13 18:00:00 19.3 32 Norte 52 Norte 0 1013.4 -0.3 67
2020-03-13 17:00:00 19.7 37 Norte 52 Norte 0 1013.4 -0.9 63
2020-03-13 16:00:00 20.9 35 Norte 50 Norte 0 1013.4 -1.6 61
2020-03-13 15:00:00 20.8 35 Norte 48 Norte 0 1013.7 -1.8 60
2020-03-13 14:00:00 21.3 37 Norte 50 Norte 0 1014.3 -1.6 58
2020-03-13 13:00:00 20.9 40 Norte 52 Norte 0 1015 -0.7 60
2020-03-13 12:00:00 20.8 33 Norte 54 Norte 0 1015.5 0.3 58
2020-03-13 11:00:00 19.7 30 Norte 46 Norte 0 1015.9 1.4 62
2020-03-13 10:00:00 18.7 30 Norte 45 Norte 0 1015.7 1.7 67
2020-03-13 09:00:00 18.3 26 Norte 45 Norte 0 1015.2 1.5 69
2020-03-13 08:00:00 17.7 25 Norte 45 Norte 0 1014.5 1.1 71
2020-03-13 07:00:00 17.7 26 Norte 45 Norte 0 1014 0.7 72
2020-03-13 06:00:00 17.7 30 Norte 46 Norte 0 1013.7 0.2 72
2020-03-13 05:00:00 17.7 26 Norte 42 Norte 0 1013.4 -0.3 74
2020-03-13 04:00:00 17.6 28 Norte 46 Norte 0 1013.3 -0.7 75
2020-03-13 03:00:00 17.6 30 Norte 48 Norte 0 1013.5 -0.6 76
2020-03-13 02:00:00 17.6 25 Norte 42 Norte 0 1013.7 -0.5 78
2020-03-13 01:00:00 17.7 28 Norte 41 Norte 0 1014 0 79
2020-03-13 00:00:00 18.1 21 Norte 32 Norte 0 1014.1 0.5 76
2020-03-12 23:00:00 18 17 Norte 30 Norte 0 1014.2 1 81
2020-03-12 22:00:00 18.3 19 Norte 33 Norte 0 1014 1.2 83
2020-03-12 21:00:00 18.5 24 Norte 35 Norte 0 1013.6 0.9 84
2020-03-12 20:00:00 18.8 25 Norte 35 Norte 0 1013.2 0.7 82
2020-03-12 19:00:00 19.2 27 Norte 39 Norte 0 1012.8 0.4 82
2020-03-12 18:00:00 20.7 26 Norte 37 Norte 0 1012.7 0.1 76
2020-03-12 17:00:00 21.8 28 Norte 39 Norte 0 1012.5 -0.5 72
2020-03-12 16:00:00 22.3 30 Norte 35 Nordeste 0 1012.4 -1.4 70
2020-03-12 15:00:00 23.4 26 Nordeste 33 Nordeste 0 1012.6 -1.7 64
2020-03-12 14:00:00 23.5 12 Nordeste 21 Nordeste 0 1013 -1.3 52
2020-03-12 13:00:00 23.1 17 Norte 28 Norte 0 1013.8 -0.2 61
2020-03-12 12:00:00 23.1 18 Nordeste 28 Norte 0 1014.3 0.7 62
2020-03-12 11:00:00 22.8 20 Nordeste 26 Nordeste 0 1014.3 1.3 66
2020-03-12 10:00:00 21.5 19 Norte 32 Norte 0 1014 1.4 70
2020-03-12 09:00:00 19.3 22 Norte 32 Norte 0 1013.6 1.9 77
2020-03-12 08:00:00 16.7 15 Norte 28 Norte 0 1013 1.4 86
2020-03-12 07:00:00 16.7 18 Norte 32 Norte 0 1012.6 0.6 90
2020-03-12 06:00:00 16.8 14 Norte 26 Norte 0 1011.7 -1 64
2020-03-12 05:00:00 17.7 10 Norte 17 Norte 0 1011.6 -1.8 38
2020-03-12 04:00:00 20.1 11 Noroeste 22 Norte 0 1012 -1.5 31
2020-03-12 03:00:00 18 14 Norte 28 Norte 0 1012.7 -0.7 62
2020-03-12 02:00:00 17 15 Norte 24 Norte 0 1013.4 -0.1 79
2020-03-12 01:00:00 16.9 13 Norte 28 Norte 0 1013.5 0.7 82
2020-03-12 00:00:00 17.7 22 Norte 33 Norte 0 1013.4 0.4 88
2020-03-11 23:00:00 18 21 Norte 32 Norte 0 1013.5 1 91
2020-03-11 22:00:00 17.9 10 Norte 26 Norte 0 1012.8 0.5 80
2020-03-11 21:00:00 18.6 17 Norte 24 Norte 0 1013 0.8 85
2020-03-11 20:00:00 19.1 15 Norte 26 Norte 0 1012.5 0.4 84
2020-03-11 19:00:00 19.9 19 Norte 24 Norte 0 1012.3 0.1 77
2020-03-11 18:00:00 20.5 19 Norte 24 Norte 0 1012.2 -0.5 73
2020-03-11 17:00:00 21.6 16 Norte 22 Norte 0 1012.1 -1.1 56
2020-03-11 16:00:00 23.2 14 Nordeste 21 Nordeste 0 1012.2 -1.5 52
2020-03-11 15:00:00 22.5 12 Nordeste 22 Este 0 1012.7 -1.4 46
2020-03-11 14:00:00 23.8 13 Nordeste 18 Nordeste 0 1013.2 -1.1 37
2020-03-11 13:00:00 23.4 12 Nordeste 18 Nordeste 0 1013.7 -0.5 46
2020-03-11 12:00:00 22.2 14 Nordeste 21 Nordeste 0 1014.1 0.3 61
2020-03-11 11:00:00 19.7 14 Norte 21 Norte 0 1014.3 1.3 73
2020-03-11 10:00:00 18.5 14 Norte 21 Nordeste 0 1014.2 1.1 78
2020-03-11 09:00:00 18.1 12 Norte 18 Norte 0 1013.8 0.5 78
2020-03-11 08:00:00 16.2 13 Norte 22 Norte 0 1013 -0.2 82
2020-03-11 07:00:00 15.6 15 Norte 21 Norte 0 1013.1 -0.4 84
2020-03-11 06:00:00 15.8 13 Norte 22 Norte 0 1013.3 -0.5 82
2020-03-11 05:00:00 16.2 15 Norte 24 Norte 0 1013.2 -0.7 84
2020-03-11 04:00:00 16 16 Norte 24 Norte 0 1013.5 -0.8 85
2020-03-11 03:00:00 16.1 15 Norte 24 Norte 0 1013.8 -0.6 87
2020-03-11 02:00:00 16.1 16 Norte 28 Norte 0 1013.9 -1.1 86
2020-03-11 01:00:00 16.8 18 Norte 28 Norte 0 1014.3 -0.8 84
2020-03-11 00:00:00 17 20 Norte 30 Norte 0 1014.4 -0.3 83
2020-03-10 23:00:00 17.4 19 Norte 33 Norte 0 1015 1 83
2020-03-10 22:00:00 17.9 19 Norte 28 Norte 0 1015.1 1.2 83
2020-03-10 21:00:00 18.2 15 Norte 28 Norte 0 1014.7 0.6 84
2020-03-10 20:00:00 18.4 15 Norte 30 Norte 0 1014 0.2 81
2020-03-10 19:00:00 18.9 20 Norte 35 Norte 0 1013.9 -0.2 77
2020-03-10 18:00:00 19.9 29 Norte 39 Norte 0 1014.1 -0.6 73
2020-03-10 17:00:00 21.1 33 Norte 41 Nordeste 0 1013.8 -1.4 69
2020-03-10 16:00:00 21.6 34 Norte 42 Nordeste 0 1014.1 -2.2 66
2020-03-10 15:00:00 22.2 32 Norte 39 Norte 0 1014.7 -2.3 63
2020-03-10 14:00:00 22.4 32 Norte 37 Nordeste 0 1015.2 -1.9 62
2020-03-10 13:00:00 21.4 17 Norte 28 Nordeste 0 1016.3 -0.7 65
2020-03-10 12:00:00 21 19 Nordeste 30 Nordeste 0 1017 0.5 67
2020-03-10 11:00:00 20.4 23 Nordeste 33 Norte 0 1017.1 1.2 67
2020-03-10 10:00:00 20 27 Norte 33 Norte 0 1017 1.4 69
2020-03-10 09:00:00 19.6 18 Norte 26 Norte 0 1016.5 1.2 67
2020-03-10 08:00:00 18.1 14 Norte 26 Norte 0 1015.9 1 48
2020-03-10 07:00:00 18.8 17 Norte 33 Norte 0 1015.6 0.4 34
2020-03-10 06:00:00 16.2 20 Norte 32 Norte 0 1015.3 -0.2 79
2020-03-10 05:00:00 16.6 21 Norte 33 Norte 0 1014.9 -1.3 84
2020-03-10 04:00:00 16.8 20 Norte 37 Norte 0 1015.2 -1.6 83
2020-03-10 03:00:00 17.2 22 Norte 30 Norte 0 1015.5 -1.4 70
2020-03-10 02:00:00 17.8 17 Norte 28 Norte 0 1016.2 -0.9 44
2020-03-10 01:00:00 18.3 18 Norte 32 Norte 0 1016.8 -0.4 66
2020-03-10 00:00:00 20.1 22 Norte 37 Norte 0 1016.9 -0.3 37
2020-03-09 23:00:00 18.7 19 Norte 35 Norte 0 1017.1 0.2 54
2020-03-09 22:00:00 18.1 22 Norte 37 Norte 0 1017.2 0.4 81
2020-03-09 21:00:00 18.5 22 Norte 37 Norte 0 1017.2 0.5 80
2020-03-09 20:00:00 18.8 23 Norte 37 Norte 0 1016.9 0.4 82
2020-03-09 19:00:00 19.6 21 Norte 32 Norte 0 1016.8 0.1 78
2020-03-09 18:00:00 20.8 22 Norte 35 Norte 0 1016.7 -0.5 71
2020-03-09 17:00:00 22.2 27 Norte 37 Norte 0 1016.5 -1.4 65
2020-03-09 16:00:00 23.2 27 Norte 37 Norte 0 1016.7 -2.3 63
2020-03-09 15:00:00 23.5 29 Nordeste 33 Norte 0 1017.2 -2.1 53
2020-03-09 14:00:00 24.1 22 Nordeste 30 Norte 0 1017.9 -1.6 52
2020-03-09 13:00:00 23.5 26 Nordeste 33 Nordeste 0 1019 -0.4 56
2020-03-09 12:00:00 23.2 27 Norte 35 Nordeste 0 1019.3 0.5 52
2020-03-09 11:00:00 22.4 24 Norte 37 Norte 0 1019.5 1.6 57
2020-03-09 10:00:00 20.6 21 Norte 37 Norte 0 1019.4 2.3 67
2020-03-09 09:00:00 19.2 21 Norte 37 Norte 0 1018.8 2.4 72
2020-03-09 08:00:00 18 18 Norte 30 Norte 0 1017.9 1.7 59
2020-03-09 07:00:00 17.9 17 Norte 28 Norte 0 1017.1 0.6 48
2020-03-09 06:00:00 18.3 15 Norte 28 Norte 0 1016.4 -0.4 56
2020-03-09 05:00:00 18 18 Norte 33 Norte 0 1016.2 -1.1 66
2020-03-09 04:00:00 17.9 21 Norte 39 Norte 0 1016.5 -1 73
2020-03-09 03:00:00 18 24 Norte 45 Noroeste 0 1016.8 -0.6 71
2020-03-09 02:00:00 19.1 26 Norte 45 Norte 0 1017.3 0.2 61
2020-03-09 01:00:00 18.7 22 Norte 41 Norte 0 1017.5 0.7 66
2020-03-09 00:00:00 19.1 24 Norte 39 Norte 0 1017.4 1.2 63
2020-03-08 23:00:00 19.1 22 Norte 37 Norte 0 1017.1 1.7 60
2020-03-08 22:00:00 18.4 22 Norte 37 Norte 0 1016.8 2.2 77
2020-03-08 21:00:00 18.5 25 Norte 41 Norte 0 1016.2 1.7 81
2020-03-08 20:00:00 18.6 30 Norte 46 Norte 0 1015.4 1 84
2020-03-08 19:00:00 19.4 23 Norte 39 Norte 0 1014.6 -0.1 80
2020-03-08 18:00:00 20.5 27 Norte 39 Norte 0 1014.5 -0.6 72
2020-03-08 17:00:00 21.7 24 Norte 39 Norte 0 1014.4 -1.3 67
2020-03-08 16:00:00 22.1 30 Norte 42 Nordeste 0 1014.7 -1.6 64
2020-03-08 15:00:00 22.9 30 Norte 41 Norte 0 1015.1 -1.2 60
2020-03-08 14:00:00 22.7 29 Norte 42 Norte 0 1015.7 -0.7 60
2020-03-08 13:00:00 23.1 36 Norte 42 Norte 0 1016.3 0.4 58
2020-03-08 12:00:00 22.6 29 Norte 42 Norte 0 1016.3 1.5 58
2020-03-08 11:00:00 21.8 28 Norte 41 Norte 0 1016.4 2.4 59
2020-03-08 10:00:00 20.4 27 Norte 37 Norte 0 1015.9 2.6 64
2020-03-08 09:00:00 19 23 Norte 41 Norte 0 1014.8 1.9 69
2020-03-08 08:00:00 17 21 Norte 37 Norte 0 1014 1.4 75
2020-03-08 07:00:00 16.9 24 Norte 41 Norte 0 1013.3 0.7 76
2020-03-08 06:00:00 17 25 Norte 42 Norte 0 1012.9 0.1 75
2020-03-08 05:00:00 17.1 27 Norte 42 Norte 0 1012.6 -0.5 74
2020-03-08 04:00:00 17 23 Norte 42 Norte 0 1012.6 -0.8 75
2020-03-08 03:00:00 17.4 28 Norte 48 Norte 0 1012.8 -0.1 73
2020-03-08 02:00:00 17.6 26 Norte 50 Norte 0 1013.1 -0.6 73
2020-03-08 01:00:00 17.5 30 Norte 55 Norte 0 1013.4 -0.4 71
2020-03-08 00:00:00 17.6 31 Norte 55 Norte 0 1012.9 -0.5 70
2020-03-07 23:00:00 17.8 32 Norte 52 Norte 0 1013.7 0.6 70
2020-03-07 22:00:00 17.8 34 Norte 52 Norte 0 1013.8 1.5 69
2020-03-07 21:00:00 17.8 33 Norte 50 Norte 0 1013.4 1.3 68
2020-03-07 20:00:00 17.9 31 Norte 54 Norte 0 1013.1 1 68
2020-03-07 19:00:00 18.4 35 Norte 58 Norte 0 1012.3 0 65
2020-03-07 18:00:00 19.3 33 Norte 58 Norte 0 1012.1 -0.7 61
2020-03-07 17:00:00 19.7 41 Norte 59 Norte 0 1012.1 -1.5 58
2020-03-07 16:00:00 20.3 39 Norte 65 Norte 0 1012.3 -2.4 56
2020-03-07 15:00:00 20.8 43 Norte 65 Norte 0 1012.8 -2.4 56
2020-03-07 14:00:00 21 46 Norte 61 Norte 0 1013.6 -2.2 53
2020-03-07 13:00:00 21 44 Norte 63 Norte 0 1014.7 -1.4 54
2020-03-07 12:00:00 20.3 41 Norte 61 Norte 0 1015.2 -0.8 55
2020-03-07 11:00:00 20.2 45 Norte 58 Norte 0 1015.8 0.6 56
2020-03-07 10:00:00 19.2 33 Norte 52 Norte 0 1016.1 1.4 56
2020-03-07 09:00:00 18 29 Norte 48 Norte 0 1016 1.9 58
2020-03-07 08:00:00 17.3 24 Norte 45 Norte 0 1015.2 1.2 63
2020-03-07 07:00:00 17.2 26 Norte 46 Norte 0 1014.7 0.3 63
2020-03-07 06:00:00 17.1 26 Norte 45 Norte 0 1014.1 -0.9 63
2020-03-07 05:00:00 17.2 24 Norte 46 Norte 0 1014 -1.5 63
2020-03-07 04:00:00 17.2 26 Norte 46 Norte 0 1014.4 -1.6 64
2020-03-07 03:00:00 17.1 29 Norte 46 Norte 0 1015 -1.4 62
2020-03-07 02:00:00 17 28 Norte 48 Norte 0 1015.5 -1.3 63
2020-03-07 01:00:00 17 30 Norte 54 Norte 0 1016 -1.1 63
2020-03-07 00:00:00 17 35 Norte 54 Norte 0 1016.4 -0.5 63
2020-03-06 23:00:00 17.1 27 Norte 54 Norte 0 1016.8 0.4 62
2020-03-06 22:00:00 17.6 32 Norte 55 Norte 0 1017.1 0.6 60
2020-03-06 21:00:00 17.7 30 Norte 54 Norte 0 1016.9 -- 59
2020-03-06 20:00:00 17.9 36 Norte 48 Norte 0 1016.4 -0.1 61
2020-03-06 19:00:00 17.9 33 Norte 54 Norte 0 1016.5 -0.3 59
2020-03-06 18:00:00 -- -- -- -- -- -- -- -- --
2020-03-06 17:00:00 19.4 38 Norte 58 Norte 0 1016.5 -1.2 55
2020-03-06 16:00:00 19.5 33 Norte 58 Norte 0 1016.8 -2 55
2020-03-06 15:00:00 19.6 39 Norte 61 Norte 0 1017.4 -2 54
2020-03-06 14:00:00 19.4 40 Norte 61 Norte 0 1017.7 -1.9 55
2020-03-06 13:00:00 19.8 48 Norte 61 Norte 0 1018.8 -0.6 54
2020-03-06 12:00:00 18.7 40 Norte 54 Norte 0 1019.4 0.6 62
2020-03-06 11:00:00 18.5 34 Norte 58 Norte 0 1019.6 1.7 57
2020-03-06 10:00:00 17.7 37 Norte 58 Norte 0 1019.4 1.8 64
2020-03-06 09:00:00 17.3 36 Norte 59 Norte 0 1018.8 1.6 64
2020-03-06 08:00:00 17.1 26 Norte 48 Norte 0 1017.9 0.8 70
2020-03-06 07:00:00 16.6 33 Norte 52 Norte 0 1017.6 0.1 80
2020-03-06 06:00:00 16.3 26 Norte 54 Norte 0.1 1017.2 -0.4 93
2020-03-06 05:00:00 16.9 25 Norte 48 Norte 0.2 1017.1 -1.2 91
2020-03-06 04:00:00 17.1 28 Norte 46 Norte 0.4 1017.5 -1.4 88
2020-03-06 03:00:00 18.4 28 Norte 50 Norte 0 1017.6 -1.6 73
2020-03-06 02:00:00 18.7 26 Norte 46 Norte 0 1018.3 -1.5 69
2020-03-06 01:00:00 18.9 30 Norte 50 Norte 0 1018.9 -0.6 64
2020-03-06 00:00:00 18.6 29 Norte 46 Norte 0 1019.2 0.4 72
2020-03-05 23:00:00 18.3 27 Norte 55 Norte 0 1019.8 2 72
2020-03-05 22:00:00 18.4 34 Norte 59 Norte 0 1019.5 2.1 69
2020-03-05 21:00:00 18.4 35 Norte 54 Norte 0 1018.8 1.8 68
2020-03-05 20:00:00 18.4 37 Norte 54 Norte 0 1017.8 1 68
2020-03-05 19:00:00 18.8 32 Norte 55 Norte 0 1017.4 0.5 68
2020-03-05 18:00:00 19.7 36 Norte 61 Norte 0 1017 -0.4 63
2020-03-05 17:00:00 20.4 40 Norte 61 Norte 0 1016.8 -0.9 62
2020-03-05 16:00:00 21.1 42 Norte 61 Norte 0 1016.9 -1.2 60
2020-03-05 15:00:00 21.6 31 Norte 61 Norte 0 1017.4 -1.2 57
2020-03-05 14:00:00 21.5 38 Norte 59 Norte 0 1017.7 -1.2 60
2020-03-05 13:00:00 21.1 44 Norte 59 Norte 0 1018.1 -0.8 62
2020-03-05 12:00:00 21 41 Norte 54 Norte 0 1018.6 0.4 63
2020-03-05 11:00:00 19.8 41 Norte 50 Norte 0 1018.9 1.6 68
2020-03-05 10:00:00 19 33 Norte 48 Norte 0 1018.9 2.4 71
2020-03-05 09:00:00 18.3 28 Norte 45 Norte 0 1018.2 1.8 74
2020-03-05 08:00:00 17.6 24 Norte 42 Norte 0 1017.3 1.4 78
2020-03-05 07:00:00 17.5 26 Norte 45 Norte 0 1016.5 0.2 79
2020-03-05 06:00:00 17.5 24 Norte 46 Norte 0 1016.4 0.3 80
2020-03-05 05:00:00 17.5 29 Norte 46 Norte 0 1015.9 -0.2 79
2020-03-05 04:00:00 17.5 25 Norte 45 Norte 0 1016.3 -0.3 78
2020-03-05 03:00:00 17.5 23 Norte 42 Norte 0 1016.1 -0.9 79
2020-03-05 02:00:00 17.4 23 Norte 41 Norte 0 1016.1 -1 80
2020-03-05 01:00:00 17.8 28 Norte 42 Norte 0 1016.6 -0.4 79
2020-03-05 00:00:00 17.9 26 Norte 41 Norte 0 1017 0.3 80
2020-03-04 23:00:00 18.1 24 Norte 37 Norte 0 1017.1 1 81
2020-03-04 22:00:00 18.1 22 Norte 35 Norte 0 1017 1.3 83
2020-03-04 21:00:00 18.2 21 Norte 33 Norte 0 1016.7 1.1 84
2020-03-04 20:00:00 18.5 16 Norte 30 Norte 0 1016.1 0.6 82
2020-03-04 19:00:00 19.2 22 Norte 35 Norte 0 1015.7 0.2 77
2020-03-04 18:00:00 20.5 26 Norte 41 Norte 0 1015.6 -0.2 71
2020-03-04 17:00:00 21.2 34 Norte 46 Norte 0 1015.5 -0.9 69
2020-03-04 16:00:00 21.8 36 Norte 48 Norte 0 1015.5 -1.7 67
2020-03-04 15:00:00 22.4 39 Norte 46 Norte 0 1015.8 -2 64
2020-03-04 14:00:00 22.6 36 Norte 46 Norte 0 1016.4 -1.8 63
2020-03-04 13:00:00 22.4 36 Norte 46 Norte 0 1017.2 -1 64
2020-03-04 12:00:00 21.9 37 Norte 45 Norte 0 1017.8 0.1 66
2020-03-04 11:00:00 21.6 34 Norte 42 Norte 0 1018.2 1.2 67
2020-03-04 10:00:00 20.4 23 Norte 33 Norte 0 1018.2 1.7 67
2020-03-04 09:00:00 18.8 18 Norte 35 Norte 0 1017.7 1.5 73
2020-03-04 08:00:00 16.8 19 Norte 30 Norte 0 1017 0.7 80
2020-03-04 07:00:00 16.2 21 Norte 32 Norte 0 1016.5 0 79
2020-03-04 06:00:00 16.6 19 Norte 32 Norte 0 1016.2 -1.1 80
2020-03-04 05:00:00 16.8 19 Norte 30 Norte 0 1016.3 -1.8 77
2020-03-04 04:00:00 17 20 Norte 30 Norte 0 1016.5 -2.3 73
2020-03-04 03:00:00 17 19 Norte 32 Norte 0 1017.3 -1.8 78
2020-03-04 02:00:00 17 21 Norte 33 Norte 0 1018.1 -1 82
2020-03-04 01:00:00 17.1 22 Norte 32 Norte 0 1018.8 -0.1 80
2020-03-04 00:00:00 17.6 19 Norte 37 Norte 0 1019.1 0.2 79